Time;durP1;ratioP1;P1;durP2;ratioP2;P2;SDS_P1;SDS_P2;PMS_P1;PMS_P2;Temp;Humidity;BMP_temperature;BMP_pressure;BME280_temperature;BME280_humidity;BME280_pressure;Samples;Min_cycle;Max_cycle;Signal;HPM_P1;HPM_P2
2021/08/08 10:49:03;;;;;;;2.23;1.50;;;22.10;95.40;;;;;;6267234;22;20452;-94
2021/08/08 10:51:29;;;;;;;2.57;1.20;;;22.00;95.40;;;;;;6245067;22;20416;-94
2021/08/08 10:54:32;;;;;;;11.10;2.00;;;21.30;95.50;;;;;;6250246;22;20447;-95
2021/08/08 10:57:45;;;;;;;;;;;;;;;;;;;;;
2021/08/08 11:00:15;;;;;;;3.83;1.23;;;21.20;95.50;;;;;;6277035;22;20431;-95
2021/08/08 11:02:53;;;;;;;3.43;1.17;;;21.50;95.80;;;;;;6267044;22;20393;-95
2021/08/08 19:16:42;;;;;;;3.00;1.80;;;17.80;94.30;;;;;;6194820;23;20544;-88
2021/08/08 19:19:42;;;;;;;1.47;1.37;;;17.70;94.60;;;;;;6192747;23;20404;-95
2021/08/08 19:22:47;;;;;;;2.07;1.83;;;17.60;95.30;;;;;;6199708;23;20400;-93
2021/08/08 19:25:33;;;;;;;2.23;2.03;;;17.50;95.50;;;;;;6171515;23;20411;-91
2021/08/08 19:28:24;;;;;;;;;;;;;;;;;;;;;
2021/08/08 19:30:59;;;;;;;1.83;1.67;;;17.40;96.70;;;;;;6169224;23;20395;-93
2021/08/08 19:33:26;;;;;;;5.20;1.90;;;17.30;97.70;;;;;;6179022;23;20447;-92
2021/08/08 19:35:53;;;;;;;2.23;1.97;;;17.20;98.00;;;;;;6176337;23;20398;-91
2021/08/08 19:38:22;;;;;;;2.87;1.90;;;17.10;98.60;;;;;;6162696;23;20404;-92
2021/08/08 19:40:50;;;;;;;3.50;1.87;;;17.00;98.80;;;;;;6186581;23;20394;-89
2021/08/08 19:43:32;;;;;;;1.90;1.70;;;17.00;98.20;;;;;;6166760;23;20177;-90
2021/08/08 19:46:01;;;;;;;2.07;1.93;;;16.80;99.20;;;;;;6187474;23;20392;-90
2021/08/08 19:48:27;;;;;;;2.70;2.20;;;16.80;99.70;;;;;;6158664;23;20179;-90
2021/08/08 19:50:53;;;;;;;2.33;2.13;;;16.60;99.90;;;;;;6188191;23;20392;-90
2021/08/08 19:53:23;;;;;;;3.03;1.87;;;16.50;99.90;;;;;;6182155;23;20212;-89
2021/08/08 19:55:50;;;;;;;2.63;2.07;;;16.40;99.90;;;;;;6156279;23;20578;-93
2021/08/08 19:58:16;;;;;;;2.03;1.80;;;16.20;99.90;;;;;;6187191;23;20870;-90
2021/08/08 20:00:41;;;;;;;2.70;2.07;;;15.90;99.90;;;;;;6162807;23;20477;-90
2021/08/08 20:03:10;;;;;;;2.50;2.30;;;15.80;99.90;;;;;;6165626;23;20167;-91
2021/08/08 20:06:37;;;;;;;2.70;2.20;;;15.70;99.90;;;;;;6189799;23;20156;-93
2021/08/08 20:09:31;;;;;;;4.73;2.00;;;15.60;99.90;;;;;;6188455;23;20403;-92
2021/08/08 20:12:13;;;;;;;3.13;1.90;;;15.50;99.90;;;;;;6181538;23;20432;-91
2021/08/08 20:15:02;;;;;;;3.40;2.00;;;15.40;99.90;;;;;;6148647;23;20423;-92
2021/08/08 20:18:14;;;;;;;2.00;1.80;;;15.30;99.90;;;;;;6192270;23;20427;-92
2021/08/08 20:21:39;;;;;;;;;;;;;;;;;;;;;
2021/08/08 20:24:37;;;;;;;2.50;2.10;;;15.20;99.90;;;;;;6179680;23;20415;-90
2021/08/08 20:31:19;;;;;;;5.33;1.87;;;15.30;99.90;;;;;;6284170;22;20427;-90
2021/08/08 20:33:59;;;;;;;1.90;1.80;;;15.10;99.90;;;;;;6295560;22;20433;-91
2021/08/08 20:36:43;;;;;;;3.37;2.10;;;15.10;99.90;;;;;;6258333;22;20392;-91
2021/08/08 20:39:44;;;;;;;3.03;1.87;;;15.00;99.90;;;;;;6258557;22;20392;-91
2021/08/08 20:42:23;;;;;;;2.50;2.30;;;15.10;99.90;;;;;;6243057;22;20389;-93
2021/08/08 20:51:45;;;;;;;2.67;2.20;;;15.80;99.90;;;;;;6120260;23;20406;-92
2021/08/08 20:54:12;;;;;;;2.40;2.20;;;15.90;99.90;;;;;;6093400;23;20444;-91
2021/08/08 20:56:48;;;;;;;2.80;2.60;;;15.80;99.90;;;;;;6102589;23;20401;-91
2021/08/08 20:59:30;;;;;;;;;;;;;;;;;;;;;
2021/08/08 21:02:08;;;;;;;2.47;2.23;;;15.80;99.90;;;;;;6275271;22;20419;-91
2021/08/08 21:04:41;;;;;;;3.33;3.00;;;15.70;99.90;;;;;;6274016;22;20471;-91
2021/08/08 21:07:23;;;;;;;3.37;2.23;;;15.70;99.90;;;;;;6278008;22;20843;-92
2021/08/08 23:05:12;;;;;;;;;;;;;;;;;;;;;
2021/08/08 23:07:56;;;;;;;2.80;2.60;;;14.10;99.90;;;;;;6294626;22;20384;-91
2021/08/08 23:10:46;;;;;;;3.43;2.50;;;14.20;99.90;;;;;;6289936;22;20380;-92
2021/08/08 23:22:03;;;;;;;3.77;2.20;;;14.30;99.90;;;;;;6259927;22;20487;-93
2021/08/08 23:42:48;;;;;;;2.57;2.27;;;13.00;99.90;;;;;;6050517;23;20417;-92
2021/08/08 23:45:29;;;;;;;3.00;2.43;;;13.00;99.90;;;;;;6100318;23;20898;-92
2021/08/08 23:48:28;;;;;;;3.60;2.33;;;13.00;99.90;;;;;;6205231;22;20415;-92
2021/08/08 23:54:38;;;;;;;;;;;;;;;;;;;;;
